createdAt,value
2017-08-08T00:00:37.516Z,0
2017-08-08T00:01:36.521Z,0
2017-08-08T00:02:36.524Z,0
2017-08-08T00:03:36.245Z,0
2017-08-08T00:04:36.219Z,0
2017-08-08T00:05:36.226Z,0
2017-08-08T00:06:36.231Z,0
2017-08-08T00:07:36.542Z,0
2017-08-08T00:08:36.234Z,0
2017-08-08T00:09:35.954Z,0
2017-08-08T00:10:36.564Z,0
2017-08-08T00:11:36.260Z,0
2017-08-08T00:12:36.264Z,0
2017-08-08T00:13:36.251Z,0
2017-08-08T00:14:36.258Z,0
2017-08-08T00:15:36.319Z,0
2017-08-08T00:16:35.963Z,0
2017-08-08T00:17:36.269Z,0
2017-08-08T00:18:36.572Z,0
2017-08-08T00:19:36.269Z,0
2017-08-08T00:20:35.957Z,0
2017-08-08T00:21:35.960Z,0
2017-08-08T00:22:36.259Z,0
2017-08-08T00:23:36.555Z,0
2017-08-08T00:24:36.566Z,0
2017-08-08T00:25:35.976Z,0
2017-08-08T00:26:36.278Z,0
2017-08-08T00:27:36.583Z,0
2017-08-08T00:28:35.972Z,0
2017-08-08T00:29:35.996Z,0
2017-08-08T00:30:37.589Z,0
2017-08-08T00:31:36.280Z,0
2017-08-08T00:32:36.284Z,0
2017-08-08T00:33:36.582Z,0
2017-08-08T00:34:36.604Z,0
2017-08-08T00:35:36.622Z,0
2017-08-08T00:36:36.604Z,0
2017-08-08T00:37:36.607Z,0
2017-08-08T00:38:36.609Z,0
2017-08-08T00:39:35.998Z,0
2017-08-08T00:40:36.307Z,0
2017-08-08T00:41:36.315Z,0
2017-08-08T00:42:36.607Z,0
2017-08-08T00:43:36.609Z,0
2017-08-08T00:44:36.321Z,0
2017-08-08T00:45:37.412Z,0
2017-08-08T00:46:36.612Z,0
2017-08-08T00:47:36.015Z,0
2017-08-08T00:48:36.317Z,0
2017-08-08T00:49:36.316Z,0
2017-08-08T00:50:36.613Z,0
2017-08-08T00:51:36.617Z,0
2017-08-08T00:52:36.624Z,0
2017-08-08T00:53:36.622Z,0
2017-08-08T00:54:36.624Z,0
2017-08-08T00:55:36.333Z,0
2017-08-08T00:56:36.327Z,0
2017-08-08T00:57:36.348Z,0
2017-08-08T00:58:36.340Z,0
2017-08-08T00:59:36.636Z,0
2017-08-08T01:00:39.310Z,0
2017-08-08T01:01:36.635Z,0
2017-08-08T01:02:36.359Z,0
2017-08-08T01:03:36.645Z,0
2017-08-08T01:04:36.654Z,0
2017-08-08T01:05:36.645Z,0
2017-08-08T01:06:37.459Z,0
2017-08-08T01:07:36.650Z,0
2017-08-08T01:08:36.655Z,0
2017-08-08T01:09:36.652Z,0
2017-08-08T01:10:36.349Z,0
2017-08-08T01:11:36.660Z,0
2017-08-08T01:12:36.758Z,0
2017-08-08T01:13:36.733Z,0
2017-08-08T01:14:36.691Z,0
2017-08-08T01:15:36.659Z,0
2017-08-08T01:16:36.410Z,0
2017-08-08T01:17:36.373Z,0
2017-08-08T01:18:36.067Z,0
2017-08-08T01:19:36.369Z,0
2017-08-08T01:20:36.695Z,0
2017-08-08T01:21:36.688Z,0
2017-08-08T01:22:36.692Z,0
2017-08-08T01:23:36.680Z,0
2017-08-08T01:24:36.378Z,0
2017-08-08T01:25:36.699Z,0
2017-08-08T01:26:36.693Z,0
2017-08-08T01:27:36.377Z,0
2017-08-08T01:28:36.713Z,0
2017-08-08T01:29:36.697Z,0
2017-08-08T01:30:36.703Z,0
2017-08-08T01:31:39.810Z,0
2017-08-08T01:32:36.691Z,0
2017-08-08T01:33:36.396Z,0
2017-08-08T01:34:36.405Z,0
2017-08-08T01:35:36.392Z,0
2017-08-08T01:36:36.407Z,0
2017-08-08T01:37:36.404Z,0
2017-08-08T01:38:36.735Z,0
2017-08-08T01:39:36.407Z,0
2017-08-08T01:40:36.405Z,0
2017-08-08T01:41:36.406Z,0
2017-08-08T01:42:36.405Z,0
2017-08-08T01:43:36.714Z,0
2017-08-08T01:44:36.416Z,0
2017-08-08T01:45:36.714Z,0
2017-08-08T01:46:38.032Z,0
2017-08-08T01:47:36.716Z,0
2017-08-08T01:48:36.723Z,0
2017-08-08T01:49:36.718Z,0
2017-08-08T01:50:36.769Z,0
2017-08-08T01:51:36.489Z,0
2017-08-08T01:52:36.417Z,0
2017-08-08T01:53:36.728Z,0
2017-08-08T01:54:36.447Z,0
2017-08-08T01:55:36.733Z,0
2017-08-08T01:56:36.739Z,0
2017-08-08T01:57:36.433Z,0
2017-08-08T01:58:36.434Z,0
2017-08-08T01:59:36.768Z,0
2017-08-08T02:00:36.739Z,0
2017-08-08T02:01:36.140Z,0
2017-08-08T02:02:36.734Z,0
2017-08-08T02:03:36.744Z,0
2017-08-08T02:04:36.743Z,0
2017-08-08T02:05:36.150Z,0
2017-08-08T02:06:36.463Z,0
2017-08-08T02:07:36.756Z,0
2017-08-08T02:08:36.451Z,0
2017-08-08T02:09:36.748Z,0
2017-08-08T02:10:36.587Z,0
2017-08-08T02:11:36.758Z,0
2017-08-08T02:12:36.752Z,0
2017-08-08T02:13:36.767Z,0
2017-08-08T02:14:36.779Z,0
2017-08-08T02:15:36.459Z,0
2017-08-08T02:16:36.465Z,0
2017-08-08T02:17:36.160Z,0
2017-08-08T02:18:36.779Z,0
2017-08-08T02:19:36.764Z,0
2017-08-08T02:20:36.765Z,0
2017-08-08T02:21:36.770Z,0
2017-08-08T02:22:36.787Z,0
2017-08-08T02:23:36.478Z,0
2017-08-08T02:24:36.785Z,0
2017-08-08T02:25:36.785Z,0
2017-08-08T02:26:36.789Z,0
2017-08-08T02:27:36.492Z,0
2017-08-08T02:28:36.486Z,0
2017-08-08T02:29:36.808Z,0
2017-08-08T02:30:36.857Z,0
2017-08-08T02:31:36.520Z,0
2017-08-08T02:32:37.497Z,0
2017-08-08T02:33:36.802Z,0
2017-08-08T02:34:35.910Z,0
2017-08-08T02:35:36.497Z,0
2017-08-08T02:36:36.506Z,0
2017-08-08T02:37:36.497Z,0
2017-08-08T02:38:36.794Z,0
2017-08-08T02:39:37.993Z,0
2017-08-08T02:40:36.808Z,0
2017-08-08T02:41:36.809Z,0
2017-08-08T02:42:36.506Z,0
2017-08-08T02:43:36.810Z,0
2017-08-08T02:44:36.802Z,0
2017-08-08T02:45:36.498Z,0
2017-08-08T02:46:36.506Z,0
2017-08-08T02:47:36.872Z,0
2017-08-08T02:48:36.811Z,0
2017-08-08T02:49:36.508Z,0
2017-08-08T02:50:36.814Z,0
2017-08-08T02:51:35.918Z,0
2017-08-08T02:52:36.526Z,0
2017-08-08T02:53:36.511Z,0
2017-08-08T02:54:36.519Z,0
2017-08-08T02:55:36.516Z,0
2017-08-08T02:56:36.217Z,0
2017-08-08T02:57:36.816Z,0
2017-08-08T02:58:36.230Z,0
2017-08-08T02:59:36.844Z,0
2017-08-08T03:00:36.841Z,0
2017-08-08T03:01:36.829Z,0
2017-08-08T03:02:37.824Z,0
2017-08-08T03:03:36.829Z,0
2017-08-08T03:04:36.844Z,0
2017-08-08T03:05:36.844Z,0
2017-08-08T03:06:36.844Z,0
2017-08-08T03:07:36.534Z,0
2017-08-08T03:08:36.874Z,0
2017-08-08T03:09:36.872Z,0
2017-08-08T03:10:36.849Z,0
2017-08-08T03:11:36.542Z,0
2017-08-08T03:12:36.847Z,0
2017-08-08T03:13:36.846Z,0
2017-08-08T03:14:36.859Z,0
2017-08-08T03:15:36.860Z,0
2017-08-08T03:16:36.858Z,0
2017-08-08T03:17:38.853Z,0
2017-08-08T03:18:36.852Z,0
2017-08-08T03:19:36.865Z,0
2017-08-08T03:20:36.557Z,0
2017-08-08T03:21:36.870Z,0
2017-08-08T03:22:36.560Z,0
2017-08-08T03:23:36.581Z,0
2017-08-08T03:24:36.565Z,0
2017-08-08T03:25:36.872Z,0
2017-08-08T03:26:36.865Z,0
2017-08-08T03:27:36.557Z,0
2017-08-08T03:28:36.875Z,0
2017-08-08T03:29:36.884Z,0
2017-08-08T03:30:36.884Z,0
2017-08-08T03:31:36.585Z,0
2017-08-08T03:32:38.029Z,0
2017-08-08T03:33:36.875Z,0
2017-08-08T03:34:36.869Z,0
2017-08-08T03:35:36.877Z,0
2017-08-08T03:36:36.574Z,0
2017-08-08T03:37:36.893Z,0
2017-08-08T03:38:36.585Z,0
2017-08-08T03:39:36.595Z,0
2017-08-08T03:40:36.587Z,0
2017-08-08T03:41:36.884Z,0
2017-08-08T03:42:36.894Z,0
2017-08-08T03:43:36.882Z,0
2017-08-08T03:44:36.599Z,0
2017-08-08T03:45:36.897Z,0
2017-08-08T03:46:36.892Z,0
2017-08-08T03:47:36.643Z,0
2017-08-08T03:48:36.940Z,0
2017-08-08T03:49:36.287Z,0
2017-08-08T03:50:36.297Z,0
2017-08-08T03:51:36.597Z,0
2017-08-08T03:52:36.894Z,0
2017-08-08T03:53:36.620Z,5
2017-08-08T03:54:36.303Z,5
2017-08-08T03:55:36.605Z,5
2017-08-08T03:56:36.614Z,5
2017-08-08T03:57:36.918Z,5
2017-08-08T03:58:36.909Z,5
2017-08-08T03:59:36.902Z,5
2017-08-08T04:00:36.918Z,5
2017-08-08T04:01:36.912Z,5
2017-08-08T04:02:37.012Z,5
2017-08-08T04:03:36.919Z,5
2017-08-08T04:04:36.307Z,5
2017-08-08T04:05:36.917Z,10
2017-08-08T04:06:36.910Z,10
2017-08-08T04:07:36.609Z,10
2017-08-08T04:08:36.919Z,10
2017-08-08T04:09:36.606Z,15
2017-08-08T04:10:36.909Z,15
2017-08-08T04:11:36.612Z,15
2017-08-08T04:12:36.616Z,15
2017-08-08T04:13:36.009Z,15
2017-08-08T04:14:36.915Z,20
2017-08-08T04:15:36.620Z,20
2017-08-08T04:16:36.918Z,20
2017-08-08T04:17:36.966Z,25
2017-08-08T04:18:36.929Z,25
2017-08-08T04:19:36.919Z,25
2017-08-08T04:20:36.639Z,25
2017-08-08T04:21:36.633Z,25
2017-08-08T04:22:36.939Z,25
2017-08-08T04:23:37.651Z,25
2017-08-08T04:24:36.935Z,30
2017-08-08T04:25:36.954Z,30
2017-08-08T04:26:36.940Z,30
2017-08-08T04:27:36.877Z,30
2017-08-08T04:28:36.353Z,30
2017-08-08T04:29:36.942Z,35
2017-08-08T04:30:36.037Z,35
2017-08-08T04:31:36.962Z,35
2017-08-08T04:32:36.355Z,40
2017-08-08T04:33:36.947Z,40
2017-08-08T04:34:36.643Z,45
2017-08-08T04:35:36.648Z,45
2017-08-08T04:36:36.955Z,50
2017-08-08T04:37:36.959Z,55
2017-08-08T04:38:36.963Z,50
2017-08-08T04:39:36.674Z,50
2017-08-08T04:40:36.959Z,50
2017-08-08T04:41:36.664Z,55
2017-08-08T04:42:36.974Z,60
2017-08-08T04:43:36.967Z,55
2017-08-08T04:44:36.970Z,55
2017-08-08T04:45:36.978Z,60
2017-08-08T04:46:36.660Z,60
2017-08-08T04:47:36.964Z,70
2017-08-08T04:48:37.031Z,75
2017-08-08T04:49:36.974Z,65
2017-08-08T04:50:36.970Z,60
2017-08-08T04:51:36.977Z,65
2017-08-08T04:52:36.670Z,65
2017-08-08T04:53:36.978Z,65
2017-08-08T04:54:36.979Z,65
2017-08-08T04:55:36.680Z,65
2017-08-08T04:56:36.984Z,65
2017-08-08T04:57:37.002Z,70
2017-08-08T04:58:36.696Z,65
2017-08-08T04:59:36.996Z,70
2017-08-08T05:00:37.002Z,90
2017-08-08T05:01:36.994Z,115
2017-08-08T05:02:36.700Z,125
2017-08-08T05:03:39.634Z,120
2017-08-08T05:04:36.712Z,80
2017-08-08T05:05:36.699Z,80
2017-08-08T05:06:36.702Z,90
2017-08-08T05:07:36.714Z,90
2017-08-08T05:08:36.708Z,90
2017-08-08T05:09:36.717Z,105
2017-08-08T05:10:37.018Z,110
2017-08-08T05:11:36.715Z,120
2017-08-08T05:12:36.756Z,110
2017-08-08T05:13:37.043Z,110
2017-08-08T05:14:36.742Z,110
2017-08-08T05:15:37.089Z,130
2017-08-08T05:16:37.049Z,145
2017-08-08T05:17:37.051Z,145
2017-08-08T05:18:40.002Z,140
2017-08-08T05:19:37.045Z,145
2017-08-08T05:20:36.464Z,140
2017-08-08T05:21:36.774Z,125
2017-08-08T05:22:37.067Z,105
2017-08-08T05:23:37.060Z,100
2017-08-08T05:24:36.773Z,100
2017-08-08T05:25:36.769Z,100
2017-08-08T05:26:36.767Z,100
2017-08-08T05:27:37.077Z,95
2017-08-08T05:28:36.770Z,95
2017-08-08T05:29:36.768Z,95
2017-08-08T05:30:37.076Z,100
2017-08-08T05:31:36.793Z,100
2017-08-08T05:32:37.084Z,100
2017-08-08T05:33:37.102Z,95
2017-08-08T05:34:40.545Z,95
2017-08-08T05:35:37.090Z,95
2017-08-08T05:36:37.096Z,90
2017-08-08T05:37:36.788Z,90
2017-08-08T05:38:36.806Z,90
2017-08-08T05:39:37.108Z,90
2017-08-08T05:40:36.816Z,90
2017-08-08T05:41:37.108Z,90
2017-08-08T05:42:36.832Z,95
2017-08-08T05:43:37.118Z,100
2017-08-08T05:44:37.125Z,105
2017-08-08T05:45:37.117Z,105
2017-08-08T05:46:36.840Z,110
2017-08-08T05:47:37.130Z,115
2017-08-08T05:48:36.829Z,120
2017-08-08T05:49:36.891Z,120
2017-08-08T05:50:37.146Z,125
2017-08-08T05:51:37.145Z,130
2017-08-08T05:52:36.838Z,145
2017-08-08T05:53:37.147Z,150
2017-08-08T05:54:37.168Z,155
2017-08-08T05:55:37.163Z,160
2017-08-08T05:56:37.152Z,180
2017-08-08T05:57:37.153Z,170
2017-08-08T05:58:37.157Z,155
2017-08-08T05:59:37.159Z,145
2017-08-08T06:00:36.865Z,140
2017-08-08T06:01:36.890Z,140
2017-08-08T06:02:36.563Z,150
2017-08-08T06:03:36.870Z,155
2017-08-08T06:04:38.274Z,160
2017-08-08T06:05:37.177Z,170
2017-08-08T06:06:37.174Z,155
2017-08-08T06:07:36.877Z,150
2017-08-08T06:08:36.884Z,140
2017-08-08T06:09:36.881Z,135
2017-08-08T06:10:36.884Z,135
2017-08-08T06:11:36.889Z,130
2017-08-08T06:12:37.195Z,125
2017-08-08T06:13:37.192Z,120
2017-08-08T06:14:36.893Z,120
2017-08-08T06:15:36.903Z,115
2017-08-08T06:16:37.211Z,110
2017-08-08T06:17:37.201Z,105
2017-08-08T06:18:37.207Z,100
2017-08-08T06:19:37.285Z,100
2017-08-08T06:20:36.918Z,100
2017-08-08T06:21:37.222Z,100
2017-08-08T06:22:37.218Z,105
2017-08-08T06:23:37.226Z,110
2017-08-08T06:24:37.224Z,115
2017-08-08T06:25:36.625Z,120
2017-08-08T06:26:37.243Z,125
2017-08-08T06:27:37.239Z,130
2017-08-08T06:28:36.938Z,130
2017-08-08T06:29:37.238Z,135
2017-08-08T06:30:36.649Z,135
2017-08-08T06:31:37.244Z,140
2017-08-08T06:32:37.256Z,145
2017-08-08T06:33:37.250Z,155
2017-08-08T06:34:38.375Z,180
2017-08-08T06:35:36.955Z,245
2017-08-08T06:36:37.256Z,205
2017-08-08T06:37:37.269Z,230
2017-08-08T06:38:37.280Z,270
2017-08-08T06:39:36.686Z,355
2017-08-08T06:40:37.275Z,390
2017-08-08T06:41:37.292Z,400
2017-08-08T06:42:36.989Z,415
2017-08-08T06:43:37.292Z,420
2017-08-08T06:44:37.298Z,425
2017-08-08T06:45:37.295Z,425
2017-08-08T06:46:37.294Z,415
2017-08-08T06:47:37.007Z,420
2017-08-08T06:48:37.023Z,385
2017-08-08T06:49:37.714Z,415
2017-08-08T06:50:37.357Z,425
2017-08-08T06:51:37.051Z,415
2017-08-08T06:52:37.359Z,415
2017-08-08T06:53:37.052Z,405
2017-08-08T06:54:37.359Z,415
2017-08-08T06:55:37.368Z,395
2017-08-08T06:56:37.061Z,390
2017-08-08T06:57:37.383Z,390
2017-08-08T06:58:37.374Z,375
2017-08-08T06:59:37.110Z,390
2017-08-08T07:00:37.408Z,365
2017-08-08T07:01:37.429Z,320
2017-08-08T07:02:37.408Z,275
2017-08-08T07:03:37.120Z,310
2017-08-08T07:04:37.426Z,330
2017-08-08T07:05:40.539Z,325
2017-08-08T07:06:37.449Z,390
2017-08-08T07:07:37.452Z,395
2017-08-08T07:08:37.451Z,405
2017-08-08T07:09:37.166Z,405
2017-08-08T07:10:37.478Z,405
2017-08-08T07:11:36.889Z,390
2017-08-08T07:12:37.474Z,380
2017-08-08T07:13:37.187Z,370
2017-08-08T07:14:37.499Z,370
2017-08-08T07:15:36.914Z,355
2017-08-08T07:16:37.520Z,360
2017-08-08T07:17:37.213Z,375
2017-08-08T07:18:37.231Z,375
2017-08-08T07:19:37.534Z,385
2017-08-08T07:20:37.599Z,330
2017-08-08T07:21:37.546Z,315
2017-08-08T07:22:37.260Z,385
2017-08-08T07:23:37.559Z,370
2017-08-08T07:24:37.581Z,380
2017-08-08T07:25:37.281Z,395
2017-08-08T07:26:37.281Z,385
2017-08-08T07:27:37.603Z,360
2017-08-08T07:28:37.602Z,350
2017-08-08T07:29:37.306Z,295
2017-08-08T07:30:37.617Z,335
2017-08-08T07:31:37.342Z,340
2017-08-08T07:32:37.632Z,375
2017-08-08T07:33:37.645Z,355
2017-08-08T07:34:37.047Z,370
2017-08-08T07:35:38.856Z,360
2017-08-08T07:36:37.672Z,355
2017-08-08T07:37:37.091Z,350
2017-08-08T07:38:37.678Z,350
2017-08-08T07:39:37.381Z,325
2017-08-08T07:40:37.711Z,260
2017-08-08T07:41:37.700Z,225
2017-08-08T07:42:37.712Z,230
2017-08-08T07:43:37.726Z,230
2017-08-08T07:44:37.746Z,235
2017-08-08T07:45:37.738Z,245
2017-08-08T07:46:37.739Z,250
2017-08-08T07:47:37.745Z,255
2017-08-08T07:48:37.748Z,265
2017-08-08T07:49:37.753Z,255
2017-08-08T07:50:37.812Z,255
2017-08-08T07:51:37.184Z,260
2017-08-08T07:52:37.468Z,250
2017-08-08T07:53:37.813Z,245
2017-08-08T07:54:37.486Z,245
2017-08-08T07:55:37.486Z,240
2017-08-08T07:56:37.495Z,240
2017-08-08T07:57:37.818Z,240
2017-08-08T07:58:37.499Z,240
2017-08-08T07:59:37.814Z,235
2017-08-08T08:00:37.811Z,235
2017-08-08T08:01:37.521Z,235
2017-08-08T08:02:37.839Z,245
2017-08-08T08:03:37.829Z,250
2017-08-08T08:04:37.839Z,260
2017-08-08T08:05:37.990Z,275
2017-08-08T08:06:37.553Z,285
2017-08-08T08:07:37.856Z,285
2017-08-08T08:08:37.854Z,290
2017-08-08T08:09:37.876Z,295
2017-08-08T08:10:38.665Z,295
2017-08-08T08:11:37.878Z,365
2017-08-08T08:12:37.875Z,295
2017-08-08T08:13:37.884Z,295
2017-08-08T08:14:37.913Z,295
2017-08-08T08:15:37.892Z,380
2017-08-08T08:16:37.900Z,340
2017-08-08T08:17:37.606Z,325
2017-08-08T08:18:37.604Z,380
2017-08-08T08:19:37.616Z,345
2017-08-08T08:20:37.933Z,385
2017-08-08T08:21:42.528Z,375
2017-08-08T08:22:37.637Z,325
2017-08-08T08:23:37.642Z,330
2017-08-08T08:24:37.957Z,325
2017-08-08T08:25:37.946Z,325
2017-08-08T08:26:37.949Z,305
2017-08-08T08:27:37.651Z,305
2017-08-08T08:28:37.982Z,310
2017-08-08T08:29:38.023Z,330
2017-08-08T08:30:37.983Z,335
2017-08-08T08:31:37.689Z,320
2017-08-08T08:32:37.406Z,325
2017-08-08T08:33:38.000Z,335
2017-08-08T08:34:38.030Z,390
2017-08-08T08:35:37.416Z,345
2017-08-08T08:36:41.110Z,345
2017-08-08T08:37:38.021Z,320
2017-08-08T08:38:37.748Z,305
2017-08-08T08:39:38.037Z,305
2017-08-08T08:40:37.450Z,315
2017-08-08T08:41:37.751Z,320
2017-08-08T08:42:38.088Z,325
2017-08-08T08:43:38.061Z,335
2017-08-08T08:44:37.760Z,360
2017-08-08T08:45:37.765Z,315
2017-08-08T08:46:37.777Z,300
2017-08-08T08:47:37.773Z,285
2017-08-08T08:48:36.873Z,270
2017-08-08T08:49:38.106Z,270
2017-08-08T08:50:38.093Z,260
2017-08-08T08:51:38.298Z,250
2017-08-08T08:52:37.814Z,240
2017-08-08T08:53:38.108Z,240
2017-08-08T08:54:37.817Z,245
2017-08-08T08:55:37.225Z,250
2017-08-08T08:56:37.518Z,255
2017-08-08T08:57:38.144Z,255
2017-08-08T08:58:38.151Z,255
2017-08-08T08:59:38.155Z,250
2017-08-08T09:00:38.159Z,245
2017-08-08T09:01:38.162Z,240
2017-08-08T09:02:37.869Z,235
2017-08-08T09:03:37.875Z,235
2017-08-08T09:04:37.593Z,235
2017-08-08T09:05:37.269Z,220
2017-08-08T09:06:37.893Z,220
2017-08-08T09:07:40.968Z,215
2017-08-08T09:08:38.191Z,215
2017-08-08T09:09:37.602Z,215
2017-08-08T09:10:37.920Z,215
2017-08-08T09:11:38.222Z,215
2017-08-08T09:12:38.267Z,220
2017-08-08T09:13:37.919Z,220
2017-08-08T09:14:37.942Z,225
2017-08-08T09:15:38.237Z,225
2017-08-08T09:16:37.644Z,225
2017-08-08T09:17:39.049Z,230
2017-08-08T09:18:37.952Z,240
2017-08-08T09:19:37.975Z,245
2017-08-08T09:20:37.669Z,245
2017-08-08T09:21:38.279Z,240
2017-08-08T09:22:38.029Z,235
2017-08-08T09:23:37.972Z,230
2017-08-08T09:24:38.300Z,225
2017-08-08T09:25:38.305Z,220
2017-08-08T09:26:37.694Z,215
2017-08-08T09:27:38.000Z,210
2017-08-08T09:28:38.305Z,205
2017-08-08T09:29:38.052Z,205
2017-08-08T09:30:38.321Z,200
2017-08-08T09:31:38.017Z,200
2017-08-08T09:32:37.727Z,205
2017-08-08T09:33:38.327Z,210
2017-08-08T09:34:38.056Z,210
2017-08-08T09:35:38.348Z,210
2017-08-08T09:36:37.753Z,210
2017-08-08T09:37:40.915Z,210
2017-08-08T09:38:38.376Z,215
2017-08-08T09:39:38.073Z,220
2017-08-08T09:40:38.386Z,220
2017-08-08T09:41:38.377Z,225
2017-08-08T09:42:38.397Z,220
2017-08-08T09:43:38.087Z,220
2017-08-08T09:44:38.100Z,205
2017-08-08T09:45:38.101Z,190
2017-08-08T09:46:37.798Z,170
2017-08-08T09:47:37.800Z,160
2017-08-08T09:48:38.118Z,150
2017-08-08T09:49:38.466Z,140
2017-08-08T09:50:38.156Z,130
2017-08-08T09:51:38.449Z,125
2017-08-08T09:52:38.196Z,125
2017-08-08T09:53:37.542Z,125
2017-08-08T09:54:38.157Z,120
2017-08-08T09:55:38.153Z,125
2017-08-08T09:56:38.466Z,130
2017-08-08T09:57:38.466Z,135
2017-08-08T09:58:38.180Z,140
2017-08-08T09:59:38.488Z,150
2017-08-08T10:00:38.190Z,160
2017-08-08T10:01:38.190Z,175
2017-08-08T10:02:38.247Z,185
2017-08-08T10:03:38.223Z,185
2017-08-08T10:04:38.512Z,185
2017-08-08T10:05:38.228Z,185
2017-08-08T10:06:38.213Z,180
2017-08-08T10:07:38.416Z,175
2017-08-08T10:08:37.622Z,175
2017-08-08T10:09:38.548Z,175
2017-08-08T10:10:38.532Z,185
2017-08-08T10:11:38.258Z,195
2017-08-08T10:12:38.255Z,215
2017-08-08T10:13:38.555Z,240
2017-08-08T10:14:38.563Z,275
2017-08-08T10:15:38.574Z,320
2017-08-08T10:16:38.568Z,345
2017-08-08T10:17:38.264Z,360
2017-08-08T10:18:37.984Z,355
2017-08-08T10:19:38.305Z,365
2017-08-08T10:20:38.273Z,355
2017-08-08T10:21:38.278Z,365
2017-08-08T10:22:41.743Z,385
2017-08-08T10:23:38.306Z,410
2017-08-08T10:24:38.618Z,435
2017-08-08T10:25:38.312Z,420
2017-08-08T10:26:38.016Z,405
2017-08-08T10:27:38.639Z,420
2017-08-08T10:28:38.621Z,415
2017-08-08T10:29:38.663Z,405
2017-08-08T10:30:38.345Z,395
2017-08-08T10:31:38.376Z,420
2017-08-08T10:32:38.041Z,410
2017-08-08T10:33:38.345Z,400
2017-08-08T10:34:38.375Z,405
2017-08-08T10:35:38.370Z,385
2017-08-08T10:36:38.066Z,360
2017-08-08T10:37:38.371Z,380
2017-08-08T10:38:39.932Z,355
2017-08-08T10:39:38.692Z,350
2017-08-08T10:40:38.098Z,350
2017-08-08T10:41:38.399Z,385
2017-08-08T10:42:38.104Z,370
2017-08-08T10:43:38.715Z,365
2017-08-08T10:44:38.739Z,370
2017-08-08T10:45:38.727Z,380
2017-08-08T10:46:38.433Z,385
2017-08-08T10:47:38.418Z,375
2017-08-08T10:48:38.434Z,375
2017-08-08T10:49:38.443Z,380
2017-08-08T10:50:38.751Z,395
2017-08-08T10:51:38.463Z,410
2017-08-08T10:52:38.465Z,415
2017-08-08T10:53:38.526Z,430
2017-08-08T10:54:38.510Z,415
2017-08-08T10:55:38.182Z,420
2017-08-08T10:56:38.779Z,420
2017-08-08T10:57:38.478Z,400
2017-08-08T10:58:38.480Z,440
2017-08-08T10:59:38.497Z,430
2017-08-08T11:00:37.892Z,440
2017-08-08T11:01:38.516Z,385
2017-08-08T11:02:38.517Z,400
2017-08-08T11:03:38.819Z,400
2017-08-08T11:04:38.827Z,385
2017-08-08T11:05:38.542Z,355
2017-08-08T11:06:38.533Z,335
2017-08-08T11:07:38.842Z,320
2017-08-08T11:08:43.105Z,305
2017-08-08T11:09:38.578Z,300
2017-08-08T11:10:37.657Z,290
2017-08-08T11:11:38.869Z,285
2017-08-08T11:12:38.580Z,280
2017-08-08T11:13:38.879Z,275
2017-08-08T11:14:38.891Z,270
2017-08-08T11:15:38.585Z,270
2017-08-08T11:16:38.600Z,275
2017-08-08T11:17:38.890Z,275
2017-08-08T11:18:38.920Z,285
2017-08-08T11:19:38.633Z,290
2017-08-08T11:20:38.614Z,295
2017-08-08T11:21:38.941Z,295
2017-08-08T11:22:38.942Z,300
2017-08-08T11:23:39.020Z,300
2017-08-08T11:24:38.949Z,300
2017-08-08T11:25:38.957Z,295
2017-08-08T11:26:38.955Z,290
2017-08-08T11:27:38.966Z,280
2017-08-08T11:28:38.986Z,280
2017-08-08T11:29:38.983Z,270
2017-08-08T11:30:38.395Z,265
2017-08-08T11:31:38.402Z,270
2017-08-08T11:32:39.021Z,285
2017-08-08T11:33:39.015Z,295
2017-08-08T11:34:39.016Z,310
2017-08-08T11:35:38.729Z,320
2017-08-08T11:36:39.016Z,325
2017-08-08T11:37:39.042Z,340
2017-08-08T11:38:39.031Z,360
2017-08-08T11:39:38.748Z,375
2017-08-08T11:40:38.755Z,390
2017-08-08T11:41:38.443Z,405
2017-08-08T11:42:38.747Z,420
2017-08-08T11:43:39.073Z,425
2017-08-08T11:44:39.083Z,420
2017-08-08T11:45:39.081Z,425
2017-08-08T11:46:38.470Z,415
2017-08-08T11:47:39.092Z,405
2017-08-08T11:48:39.096Z,395
2017-08-08T11:49:39.098Z,385
2017-08-08T11:50:38.807Z,380
2017-08-08T11:51:38.508Z,370
2017-08-08T11:52:38.513Z,365
2017-08-08T11:53:38.869Z,345
2017-08-08T11:54:38.829Z,335
2017-08-08T11:55:38.843Z,330
2017-08-08T11:56:38.836Z,320
2017-08-08T11:57:38.855Z,320
2017-08-08T11:58:38.866Z,325
2017-08-08T11:59:38.858Z,325
2017-08-08T12:00:38.557Z,330
2017-08-08T12:01:39.178Z,330
2017-08-08T12:02:38.568Z,340
2017-08-08T12:03:38.901Z,345
2017-08-08T12:04:39.197Z,345
2017-08-08T12:05:39.207Z,340
2017-08-08T12:06:39.208Z,325
2017-08-08T12:07:38.607Z,305
2017-08-08T12:08:39.757Z,275
2017-08-08T12:09:38.927Z,275
2017-08-08T12:10:38.940Z,290
2017-08-08T12:11:38.943Z,280
2017-08-08T12:12:38.333Z,260
2017-08-08T12:13:39.238Z,245
2017-08-08T12:14:38.982Z,235
2017-08-08T12:15:39.261Z,235
2017-08-08T12:16:39.272Z,250
2017-08-08T12:17:38.675Z,270
2017-08-08T12:18:38.979Z,280
2017-08-08T12:19:38.672Z,285
2017-08-08T12:20:39.307Z,290
2017-08-08T12:21:39.020Z,300
2017-08-08T12:22:38.992Z,305
2017-08-08T12:23:39.005Z,305
2017-08-08T12:24:39.021Z,305
2017-08-08T12:25:39.323Z,310
2017-08-08T12:26:39.145Z,315
2017-08-08T12:27:39.040Z,320
2017-08-08T12:28:39.335Z,330
2017-08-08T12:29:38.746Z,335
2017-08-08T12:30:38.737Z,340
2017-08-08T12:31:39.058Z,345
2017-08-08T12:32:39.072Z,355
2017-08-08T12:33:39.076Z,360
2017-08-08T12:34:38.790Z,365
2017-08-08T12:35:38.769Z,380
2017-08-08T12:36:39.114Z,380
2017-08-08T12:37:39.385Z,375
2017-08-08T12:38:39.397Z,365
2017-08-08T12:39:42.154Z,355
2017-08-08T12:40:39.110Z,350
2017-08-08T12:41:39.398Z,340
2017-08-08T12:42:38.807Z,335
2017-08-08T12:43:38.508Z,325
2017-08-08T12:44:38.824Z,320
2017-08-08T12:45:39.420Z,315
2017-08-08T12:46:38.861Z,305
2017-08-08T12:47:39.140Z,300
2017-08-08T12:48:39.470Z,295
2017-08-08T12:49:38.854Z,290
2017-08-08T12:50:39.453Z,285
2017-08-08T12:51:39.460Z,285
2017-08-08T12:52:39.484Z,280
2017-08-08T12:53:39.172Z,275
2017-08-08T12:54:39.526Z,270
2017-08-08T12:55:39.471Z,260
2017-08-08T12:56:38.880Z,260
2017-08-08T12:57:39.217Z,265
2017-08-08T12:58:39.545Z,275
2017-08-08T12:59:39.545Z,285
2017-08-08T13:00:39.261Z,290
2017-08-08T13:01:39.223Z,295
2017-08-08T13:02:39.566Z,300
2017-08-08T13:03:39.527Z,305
2017-08-08T13:04:38.932Z,305
2017-08-08T13:05:39.545Z,310
2017-08-08T13:06:38.933Z,315
2017-08-08T13:07:39.542Z,325
2017-08-08T13:08:39.263Z,325
2017-08-08T13:09:41.578Z,330
2017-08-08T13:10:39.570Z,330
2017-08-08T13:11:39.274Z,325
2017-08-08T13:12:39.589Z,315
2017-08-08T13:13:39.298Z,305
2017-08-08T13:14:39.632Z,300
2017-08-08T13:15:39.643Z,290
2017-08-08T13:16:38.999Z,280
2017-08-08T13:17:38.994Z,265
2017-08-08T13:18:39.614Z,250
2017-08-08T13:19:39.314Z,240
2017-08-08T13:20:39.615Z,240
2017-08-08T13:21:39.356Z,235
2017-08-08T13:22:39.044Z,230
2017-08-08T13:23:39.343Z,225
2017-08-08T13:24:39.422Z,215
2017-08-08T13:25:39.362Z,210
2017-08-08T13:26:39.342Z,205
2017-08-08T13:27:39.658Z,205
2017-08-08T13:28:39.662Z,205
2017-08-08T13:29:39.081Z,210
2017-08-08T13:30:39.687Z,210
2017-08-08T13:31:39.371Z,210
2017-08-08T13:32:39.698Z,205
2017-08-08T13:33:39.087Z,200
2017-08-08T13:34:38.779Z,180
2017-08-08T13:35:39.401Z,170
2017-08-08T13:36:39.108Z,155
2017-08-08T13:37:39.706Z,150
2017-08-08T13:38:39.403Z,140
2017-08-08T13:39:41.560Z,140
2017-08-08T13:40:39.161Z,140
2017-08-08T13:41:39.429Z,140
2017-08-08T13:42:39.133Z,145
2017-08-08T13:43:39.736Z,150
2017-08-08T13:44:39.133Z,145
2017-08-08T13:45:39.432Z,140
2017-08-08T13:46:39.437Z,135
2017-08-08T13:47:39.753Z,135
2017-08-08T13:48:39.467Z,125
2017-08-08T13:49:39.760Z,120
2017-08-08T13:50:39.165Z,115
2017-08-08T13:51:39.461Z,115
2017-08-08T13:52:39.473Z,110
2017-08-08T13:53:39.478Z,110
2017-08-08T13:54:39.469Z,110
2017-08-08T13:55:39.542Z,110
2017-08-08T13:56:39.197Z,105
2017-08-08T13:57:38.906Z,110
2017-08-08T13:58:39.491Z,110
2017-08-08T13:59:39.795Z,115
2017-08-08T14:00:39.512Z,120
2017-08-08T14:01:39.500Z,125
2017-08-08T14:02:39.511Z,125
2017-08-08T14:03:39.211Z,125
2017-08-08T14:04:39.517Z,125
2017-08-08T14:05:38.927Z,125